Time;durP1;ratioP1;P1;durP2;ratioP2;P2;SDS_P1;SDS_P2;PMS_P1;PMS_P2;Temp;Humidity;BMP_temperature;BMP_pressure;BME280_temperature;BME280_humidity;BME280_pressure;Samples;Min_cycle;Max_cycle;Signal;HPM_P1;HPM_P2
2022/09/18 00:00:00;;;;;;;3.60;2.17;;;10.40;99.90;;;;;;5095751;28;20454;-55
2022/09/18 00:02:27;;;;;;;4.00;2.40;;;10.40;99.90;;;;;;5095815;28;20554;-55
2022/09/18 00:04:54;;;;;;;6.83;3.30;;;10.40;99.90;;;;;;5095717;28;20443;-55
2022/09/18 00:07:21;;;;;;;2.57;2.37;;;10.40;99.90;;;;;;5094512;28;20947;-55
2022/09/18 00:09:50;;;;;;;3.13;2.47;;;10.50;99.90;;;;;;5095407;28;20461;-55
2022/09/18 00:12:17;;;;;;;3.70;2.37;;;10.40;99.90;;;;;;5095534;28;20494;-55
2022/09/18 00:14:45;;;;;;;3.43;2.10;;;10.40;99.90;;;;;;5095278;28;20409;-55
2022/09/18 00:17:12;;;;;;;4.33;3.27;;;10.40;99.90;;;;;;5095445;28;20483;-55
2022/09/18 00:19:39;;;;;;;3.33;2.50;;;10.40;99.90;;;;;;5095662;28;20568;-55
2022/09/18 00:22:06;;;;;;;4.40;2.60;;;10.40;99.90;;;;;;5095310;28;20459;-55
2022/09/18 00:24:33;;;;;;;4.23;2.80;;;10.40;99.90;;;;;;5095530;28;20504;-55
2022/09/18 00:27:02;;;;;;;4.13;2.80;;;10.50;99.90;;;;;;5095124;28;20880;-55
2022/09/18 00:29:29;;;;;;;5.13;2.80;;;10.40;99.90;;;;;;5095266;28;20572;-55
2022/09/18 00:31:58;;;;;;;7.93;3.03;;;10.40;99.90;;;;;;5095175;28;20467;-55
2022/09/18 00:34:25;;;;;;;2.43;2.30;;;10.40;99.90;;;;;;5095024;28;20447;-55
2022/09/18 00:36:53;;;;;;;2.90;2.70;;;10.40;99.90;;;;;;5095023;28;20479;-55
2022/09/18 00:39:20;;;;;;;2.60;2.40;;;10.40;99.90;;;;;;5095035;28;20447;-55
2022/09/18 00:41:47;;;;;;;6.90;2.93;;;10.40;99.90;;;;;;5094743;28;20470;-55
2022/09/18 00:44:35;;;;;;;6.70;3.83;;;10.40;99.90;;;;;;5094357;28;20546;-55
2022/09/18 00:47:14;;;;;;;12.10;3.03;;;10.40;99.90;;;;;;5094916;28;20511;-55
2022/09/18 00:49:44;;;;;;;2.77;2.57;;;10.40;99.90;;;;;;5094896;28;20431;-55
2022/09/18 00:52:18;;;;;;;8.00;2.83;;;10.40;99.90;;;;;;5094790;28;20464;-55
2022/09/18 00:54:49;;;;;;;6.83;2.50;;;10.40;99.90;;;;;;5094932;28;20443;-55
2022/09/18 00:57:19;;;;;;;3.20;2.20;;;10.40;99.90;;;;;;5094785;28;20463;-55
2022/09/18 00:59:49;;;;;;;6.27;3.00;;;10.40;99.90;;;;;;5094287;28;20443;-55
2022/09/18 01:02:16;;;;;;;5.00;2.80;;;10.50;99.90;;;;;;5094516;28;20463;-55
2022/09/18 01:04:43;;;;;;;4.07;2.53;;;10.50;99.90;;;;;;5094762;28;20444;-55
2022/09/18 01:07:20;;;;;;;5.63;3.53;;;10.50;99.90;;;;;;5094196;28;20452;-55
2022/09/18 01:09:58;;;;;;;3.30;2.80;;;10.50;99.90;;;;;;5094207;28;20438;-55
2022/09/18 01:12:33;;;;;;;3.93;3.00;;;10.50;99.90;;;;;;5094231;28;20463;-55
2022/09/18 01:15:10;;;;;;;6.50;2.67;;;10.50;99.90;;;;;;5094108;28;20914;-55
2022/09/18 01:17:44;;;;;;;3.47;2.63;;;10.50;99.90;;;;;;5094421;28;20851;-55
2022/09/18 01:20:33;;;;;;;5.33;2.70;;;10.50;99.90;;;;;;5094029;28;20515;-55
2022/09/18 01:23:27;;;;;;;4.63;2.33;;;10.60;99.90;;;;;;5094337;28;20546;-55
2022/09/18 01:26:09;;;;;;;2.43;1.97;;;10.50;99.90;;;;;;5094328;28;20423;-55
2022/09/18 01:28:43;;;;;;;4.50;2.13;;;10.40;99.90;;;;;;5094208;28;20424;-55
2022/09/18 01:31:17;;;;;;;5.73;2.00;;;10.40;99.90;;;;;;5093854;28;20489;-55
2022/09/18 01:33:51;;;;;;;6.57;2.40;;;10.50;99.90;;;;;;5093764;28;20434;-55
2022/09/18 01:36:22;;;;;;;3.23;2.47;;;10.50;99.90;;;;;;5093946;28;20840;-55
2022/09/18 01:38:53;;;;;;;6.93;2.03;;;10.40;99.90;;;;;;5094002;28;20443;-55
2022/09/18 01:41:23;;;;;;;6.13;3.50;;;10.40;99.90;;;;;;5093952;28;20448;-55
2022/09/18 01:43:56;;;;;;;5.03;3.30;;;10.40;99.90;;;;;;5093860;28;20809;-55
2022/09/18 01:46:24;;;;;;;2.90;1.93;;;10.40;99.90;;;;;;5093377;28;20507;-55
2022/09/18 01:48:58;;;;;;;6.90;2.10;;;10.50;99.90;;;;;;5093564;28;20891;-55
2022/09/18 01:51:32;;;;;;;3.87;2.10;;;10.50;99.90;;;;;;5093852;28;20473;-55
2022/09/18 01:54:03;;;;;;;2.40;2.20;;;10.50;99.90;;;;;;5093497;28;20431;-55
2022/09/18 01:56:36;;;;;;;4.60;2.47;;;10.50;99.90;;;;;;5093341;28;20468;-55
2022/09/18 01:59:10;;;;;;;6.07;2.10;;;10.60;99.90;;;;;;5093646;28;20428;-55
2022/09/18 02:01:40;;;;;;;7.53;2.23;;;10.50;99.90;;;;;;5093732;28;20470;-55
2022/09/18 02:04:11;;;;;;;4.77;2.77;;;10.50;99.90;;;;;;5093659;28;20454;-55
2022/09/18 02:06:42;;;;;;;3.03;2.40;;;10.40;99.90;;;;;;5093613;28;20428;-55
2022/09/18 02:09:11;;;;;;;4.40;2.33;;;10.50;99.90;;;;;;5093541;28;20481;-55
2022/09/18 02:11:41;;;;;;;3.43;1.90;;;10.40;99.90;;;;;;5093394;28;20475;-55
2022/09/18 02:14:14;;;;;;;6.23;1.90;;;10.40;99.90;;;;;;5093331;28;20461;-55
2022/09/18 02:16:45;;;;;;;3.70;2.10;;;10.50;99.90;;;;;;5093215;28;20463;-55
2022/09/18 02:19:17;;;;;;;3.73;2.33;;;10.50;99.90;;;;;;5093530;28;20443;-55
2022/09/18 02:21:47;;;;;;;3.83;2.13;;;10.50;99.90;;;;;;5093299;28;20550;-55
2022/09/18 02:24:19;;;;;;;4.43;2.17;;;10.50;99.90;;;;;;5093185;28;20447;-55
2022/09/18 02:26:48;;;;;;;4.00;2.20;;;10.50;99.90;;;;;;5093434;28;20424;-56
2022/09/18 02:29:18;;;;;;;2.90;2.00;;;10.50;99.90;;;;;;5093005;28;20447;-55
2022/09/18 02:31:45;;;;;;;2.83;1.77;;;10.50;99.90;;;;;;5095921;28;20829;-55
2022/09/18 02:34:13;;;;;;;2.77;2.53;;;10.50;99.90;;;;;;5097179;28;20448;-55
2022/09/18 02:37:06;;;;;;;3.73;2.20;;;10.50;99.90;;;;;;5097404;28;20486;-55
2022/09/18 02:39:45;;;;;;;2.60;2.40;;;10.50;99.90;;;;;;5097100;28;20408;-55
2022/09/18 02:42:24;;;;;;;3.03;1.93;;;10.60;99.90;;;;;;5096827;28;20463;-55
2022/09/18 02:44:58;;;;;;;4.50;2.27;;;10.60;99.90;;;;;;5095805;28;20479;-55
2022/09/18 02:47:37;;;;;;;3.17;2.27;;;10.60;99.90;;;;;;5097417;28;20481;-55
2022/09/18 02:50:14;;;;;;;4.03;2.40;;;10.50;99.90;;;;;;5097360;28;20427;-55
2022/09/18 02:52:50;;;;;;;3.50;2.60;;;10.40;99.90;;;;;;5097063;28;20516;-55
2022/09/18 02:55:22;;;;;;;5.97;2.17;;;10.50;99.90;;;;;;5096974;28;20912;-55
2022/09/18 02:57:53;;;;;;;2.37;1.97;;;10.40;99.90;;;;;;5096801;28;20460;-55
2022/09/18 03:00:24;;;;;;;5.23;1.90;;;10.50;99.90;;;;;;5096956;28;20430;-55
2022/09/18 03:02:52;;;;;;;5.63;2.20;;;10.50;99.90;;;;;;5096785;28;20961;-55
2022/09/18 03:05:19;;;;;;;2.57;2.10;;;10.40;99.90;;;;;;5096902;28;20451;-55
2022/09/18 03:07:46;;;;;;;4.47;2.10;;;10.40;99.90;;;;;;5096588;28;20435;-55
2022/09/18 03:10:13;;;;;;;2.30;2.10;;;10.30;99.90;;;;;;5096935;28;20453;-55
2022/09/18 03:12:40;;;;;;;3.13;2.07;;;10.30;99.90;;;;;;5096614;28;20479;-55
2022/09/18 03:15:09;;;;;;;4.43;2.30;;;10.30;99.90;;;;;;5096726;28;20522;-55
2022/09/18 03:17:38;;;;;;;3.07;2.23;;;10.30;99.90;;;;;;5097032;28;20843;-55
2022/09/18 03:20:06;;;;;;;2.37;2.10;;;10.20;99.90;;;;;;5096604;28;20444;-55
2022/09/18 03:22:33;;;;;;;2.17;1.73;;;10.30;99.90;;;;;;5096478;28;20550;-55
2022/09/18 03:25:00;;;;;;;3.53;2.00;;;10.30;99.90;;;;;;5096308;28;20442;-55
2022/09/18 03:27:27;;;;;;;1.97;1.87;;;10.30;99.90;;;;;;5096469;28;20446;-55
2022/09/18 03:29:54;;;;;;;2.27;2.10;;;10.30;99.90;;;;;;5096367;28;20443;-55
2022/09/18 03:32:21;;;;;;;3.00;1.80;;;10.30;99.90;;;;;;5096174;28;20977;-55
2022/09/18 03:34:49;;;;;;;2.77;2.27;;;10.30;99.90;;;;;;5096316;28;20439;-55
2022/09/18 03:37:17;;;;;;;2.87;2.60;;;10.30;99.90;;;;;;5096195;28;20479;-55
2022/09/18 03:39:44;;;;;;;2.93;1.73;;;10.30;99.90;;;;;;5096369;28;20522;-55
2022/09/18 03:42:11;;;;;;;2.70;1.70;;;10.30;99.90;;;;;;5094433;28;20472;-55
2022/09/18 03:44:38;;;;;;;1.90;1.70;;;10.20;99.90;;;;;;5095674;28;20992;-55
2022/09/18 03:47:08;;;;;;;2.53;1.70;;;10.20;99.90;;;;;;5096202;28;20416;-55
2022/09/18 03:49:35;;;;;;;3.10;1.90;;;10.20;99.90;;;;;;5096143;28;20465;-55
2022/09/18 03:52:04;;;;;;;1.90;1.80;;;10.20;99.90;;;;;;5095950;28;20463;-55
2022/09/18 03:54:31;;;;;;;6.73;2.20;;;10.20;99.90;;;;;;5095848;28;20788;-55
2022/09/18 03:56:58;;;;;;;2.33;2.10;;;10.20;99.90;;;;;;5095592;28;20814;-55
2022/09/18 03:59:25;;;;;;;3.63;2.50;;;10.30;99.90;;;;;;5095574;28;20452;-55
2022/09/18 04:01:52;;;;;;;2.33;1.80;;;10.20;99.90;;;;;;5095427;28;20554;-55
2022/09/18 04:04:20;;;;;;;3.83;2.17;;;10.30;99.90;;;;;;5095723;28;20434;-55
2022/09/18 04:06:47;;;;;;;3.20;2.00;;;10.20;99.90;;;;;;5095730;28;20447;-55
2022/09/18 04:09:15;;;;;;;2.80;2.60;;;10.30;99.90;;;;;;5095451;28;20454;-55
2022/09/18 04:11:42;;;;;;;4.23;2.20;;;10.40;99.90;;;;;;5095364;28;20476;-55
2022/09/18 04:14:10;;;;;;;4.20;2.23;;;10.30;99.90;;;;;;5095209;28;20459;-55
2022/09/18 04:16:38;;;;;;;4.00;1.70;;;10.30;99.90;;;;;;5095603;28;20444;-55
2022/09/18 04:19:05;;;;;;;3.17;2.40;;;10.30;99.90;;;;;;5095424;28;20508;-55
2022/09/18 04:21:32;;;;;;;2.07;1.87;;;10.20;99.90;;;;;;5095352;28;20498;-55
2022/09/18 04:23:59;;;;;;;2.00;1.90;;;10.30;99.90;;;;;;5095517;28;20450;-55
2022/09/18 04:26:28;;;;;;;2.47;2.10;;;10.30;99.90;;;;;;5095678;28;20454;-55
2022/09/18 04:28:55;;;;;;;1.90;1.80;;;10.30;99.90;;;;;;5094895;28;20526;-55
2022/09/18 04:31:22;;;;;;;3.93;1.90;;;10.30;99.90;;;;;;5094890;28;20825;-55
2022/09/18 04:33:49;;;;;;;2.90;2.00;;;10.30;99.90;;;;;;5095177;28;20448;-55
2022/09/18 04:36:16;;;;;;;3.37;2.53;;;10.40;99.90;;;;;;5094840;28;20448;-55
2022/09/18 04:38:44;;;;;;;3.07;2.77;;;10.40;99.90;;;;;;5095134;28;20483;-55
2022/09/18 04:41:11;;;;;;;2.70;2.50;;;10.30;99.90;;;;;;5094956;28;20473;-55
2022/09/18 04:43:39;;;;;;;3.30;2.10;;;10.30;99.90;;;;;;5094938;28;20451;-55
2022/09/18 04:46:08;;;;;;;2.30;2.20;;;10.20;99.90;;;;;;5094729;28;20486;-55
2022/09/18 04:48:35;;;;;;;3.60;2.10;;;10.20;99.90;;;;;;5095188;28;20976;-55
2022/09/18 04:51:02;;;;;;;2.63;2.33;;;10.30;99.90;;;;;;5094923;28;20459;-55
2022/09/18 04:53:30;;;;;;;1.93;1.83;;;10.30;99.90;;;;;;5094495;28;20450;-55
2022/09/18 04:55:57;;;;;;;10.47;2.40;;;10.30;99.90;;;;;;5094880;28;20452;-55
2022/09/18 04:58:24;;;;;;;2.83;2.30;;;10.40;99.90;;;;;;5094829;28;20490;-55
2022/09/18 05:00:53;;;;;;;4.70;2.37;;;10.40;99.90;;;;;;5094162;28;20542;-55
2022/09/18 05:03:21;;;;;;;3.63;1.80;;;10.30;99.90;;;;;;5094445;28;20447;-55
2022/09/18 05:05:48;;;;;;;2.23;2.03;;;10.30;99.90;;;;;;5094729;28;20569;-55
2022/09/18 05:08:16;;;;;;;2.23;2.03;;;10.30;99.90;;;;;;5094509;28;20435;-55
2022/09/18 05:10:43;;;;;;;3.57;2.20;;;10.30;99.90;;;;;;5094061;28;20871;-55
2022/09/18 05:13:10;;;;;;;2.50;2.30;;;10.40;99.90;;;;;;5094489;28;20459;-55
2022/09/18 05:15:38;;;;;;;2.60;2.40;;;10.40;99.90;;;;;;5094177;28;20431;-55
2022/09/18 05:18:08;;;;;;;2.80;2.27;;;10.30;99.90;;;;;;5094250;28;20567;-55
2022/09/18 05:20:35;;;;;;;2.77;2.10;;;10.40;99.90;;;;;;5094106;28;20452;-55
2022/09/18 05:23:03;;;;;;;4.10;2.10;;;10.50;99.90;;;;;;5093870;28;20491;-55
2022/09/18 05:25:31;;;;;;;4.93;1.90;;;10.50;99.90;;;;;;5094106;28;20547;-55
2022/09/18 05:27:59;;;;;;;3.30;2.07;;;10.50;99.90;;;;;;5094245;28;20522;-55
2022/09/18 05:30:27;;;;;;;5.17;2.03;;;10.40;99.90;;;;;;5094205;28;20447;-55
2022/09/18 05:32:56;;;;;;;5.83;2.10;;;10.40;99.90;;;;;;5093994;28;20473;-55
2022/09/18 05:35:25;;;;;;;2.93;2.03;;;10.50;99.90;;;;;;5093705;28;20451;-55
2022/09/18 05:37:53;;;;;;;2.30;1.93;;;10.40;99.90;;;;;;5093875;28;20470;-55
2022/09/18 05:40:22;;;;;;;4.33;2.70;;;10.40;99.90;;;;;;5093624;28;20546;-55
2022/09/18 05:42:51;;;;;;;10.77;2.63;;;10.50;99.90;;;;;;5093610;28;20876;-55
2022/09/18 05:45:19;;;;;;;6.80;2.63;;;10.50;99.90;;;;;;5093522;28;20570;-55
2022/09/18 05:47:54;;;;;;;2.30;2.10;;;10.50;99.90;;;;;;5093496;28;20527;-55
2022/09/18 05:50:24;;;;;;;3.17;2.20;;;10.50;99.90;;;;;;5093896;28;20427;-55
2022/09/18 05:53:00;;;;;;;3.43;2.30;;;10.50;99.90;;;;;;5093630;28;20463;-55
2022/09/18 05:55:28;;;;;;;3.57;2.47;;;10.70;99.90;;;;;;5093879;28;20432;-55
2022/09/18 05:57:56;;;;;;;6.10;2.93;;;10.60;99.90;;;;;;5093391;28;20482;-55
2022/09/18 06:00:24;;;;;;;2.73;2.53;;;10.60;99.90;;;;;;5093618;28;20847;-55
2022/09/18 06:02:55;;;;;;;2.30;2.10;;;10.60;99.90;;;;;;5093581;28;20821;-56
2022/09/18 06:05:24;;;;;;;3.30;2.20;;;10.60;99.90;;;;;;5093048;28;20447;-56
2022/09/18 06:07:52;;;;;;;2.80;2.60;;;10.60;99.90;;;;;;5093526;28;20450;-55
2022/09/18 06:10:21;;;;;;;5.53;2.70;;;10.70;99.90;;;;;;5093552;28;20443;-55
2022/09/18 06:12:48;;;;;;;2.40;2.20;;;10.60;99.90;;;;;;5093625;28;20475;-55
2022/09/18 06:15:16;;;;;;;2.60;2.00;;;10.60;99.90;;;;;;5093493;28;20538;-55
2022/09/18 06:17:50;;;;;;;5.00;3.83;;;10.60;99.90;;;;;;5093320;28;20479;-55
2022/09/18 06:20:18;;;;;;;2.47;2.27;;;10.60;99.90;;;;;;5093479;28;20459;-55
2022/09/18 06:22:47;;;;;;;3.87;2.67;;;10.60;99.90;;;;;;5093174;28;20521;-55
2022/09/18 06:25:17;;;;;;;2.50;2.30;;;10.70;99.90;;;;;;5093081;28;20534;-55
2022/09/18 06:27:44;;;;;;;4.60;2.70;;;10.70;99.90;;;;;;5093046;28;20934;-55
2022/09/18 06:30:12;;;;;;;3.73;3.40;;;10.70;99.90;;;;;;5093075;28;20542;-55
2022/09/18 06:32:39;;;;;;;3.63;2.57;;;10.70;99.90;;;;;;5093029;28;20942;-55
2022/09/18 06:35:08;;;;;;;8.53;2.70;;;10.80;99.90;;;;;;5093186;28;20531;-55
2022/09/18 06:37:35;;;;;;;3.33;2.17;;;10.70;99.90;;;;;;5092971;28;20440;-55
2022/09/18 06:40:05;;;;;;;3.40;3.10;;;10.70;99.90;;;;;;5092954;28;20443;-56
2022/09/18 06:42:32;;;;;;;2.43;2.23;;;10.70;99.90;;;;;;5093003;28;20554;-56
2022/09/18 06:44:59;;;;;;;6.13;2.50;;;10.70;99.90;;;;;;5092771;28;20493;-56
2022/09/18 06:47:26;;;;;;;2.60;2.40;;;10.80;99.90;;;;;;5093306;28;20451;-56
2022/09/18 06:49:53;;;;;;;5.13;2.60;;;10.80;99.90;;;;;;5093197;28;20866;-55
2022/09/18 06:52:20;;;;;;;3.63;2.53;;;10.90;99.90;;;;;;5092693;28;20550;-55
2022/09/18 06:54:47;;;;;;;3.53;2.53;;;10.80;99.90;;;;;;5093206;28;20526;-55
2022/09/18 06:57:16;;;;;;;3.23;2.93;;;10.70;99.90;;;;;;5092789;28;20534;-56
2022/09/18 06:59:43;;;;;;;3.03;2.83;;;10.70;99.90;;;;;;5092883;28;20475;-56
2022/09/18 07:02:13;;;;;;;6.63;2.40;;;10.80;99.90;;;;;;5092864;28;20467;-56
2022/09/18 07:04:41;;;;;;;4.97;3.87;;;10.70;99.90;;;;;;5093353;28;20762;-56
2022/09/18 07:07:08;;;;;;;3.70;2.70;;;10.70;99.90;;;;;;5092941;28;20450;-56
2022/09/18 07:09:35;;;;;;;5.67;2.70;;;10.90;99.90;;;;;;5092748;28;20930;-56
2022/09/18 07:12:03;;;;;;;2.80;2.60;;;10.80;99.90;;;;;;5092925;28;20466;-55
2022/09/18 07:14:31;;;;;;;6.03;3.00;;;10.90;99.90;;;;;;5093036;28;20938;-55
2022/09/18 07:16:59;;;;;;;5.40;3.13;;;11.10;99.90;;;;;;5094420;28;20452;-56
2022/09/18 07:19:26;;;;;;;2.77;2.53;;;11.20;99.90;;;;;;5096572;28;20479;-55
2022/09/18 07:21:53;;;;;;;2.93;2.60;;;11.10;99.90;;;;;;5096474;28;20459;-55
2022/09/18 07:24:20;;;;;;;5.23;2.67;;;11.10;99.90;;;;;;5096538;28;20523;-55
2022/09/18 07:26:47;;;;;;;4.60;2.80;;;11.20;99.90;;;;;;5096721;28;20449;-56
2022/09/18 07:29:14;;;;;;;3.37;2.90;;;11.10;99.90;;;;;;5096361;28;20439;-55
2022/09/18 07:31:43;;;;;;;3.13;2.60;;;11.20;99.90;;;;;;5096189;28;20471;-56
2022/09/18 07:34:11;;;;;;;2.57;2.37;;;11.20;99.90;;;;;;5096473;28;20477;-55
2022/09/18 07:36:38;;;;;;;5.23;2.90;;;11.20;99.90;;;;;;5096189;28;20936;-55
2022/09/18 07:39:05;;;;;;;2.90;2.70;;;11.30;99.90;;;;;;5096197;28;20471;-56
2022/09/18 07:41:32;;;;;;;3.70;2.20;;;11.30;99.90;;;;;;5096397;28;20516;-55
2022/09/18 07:44:00;;;;;;;5.03;2.07;;;11.30;99.90;;;;;;5095570;28;20460;-55
2022/09/18 07:46:27;;;;;;;2.37;2.17;;;11.30;99.90;;;;;;5095445;28;20479;-56
2022/09/18 07:48:56;;;;;;;3.77;2.63;;;11.30;99.90;;;;;;5095840;28;20957;-56
2022/09/18 07:51:24;;;;;;;6.23;2.80;;;11.30;99.90;;;;;;5095575;28;21034;-56
2022/09/18 07:53:51;;;;;;;3.53;2.30;;;11.40;99.90;;;;;;5096117;28;20459;-56
2022/09/18 07:56:19;;;;;;;4.63;2.80;;;11.60;99.90;;;;;;5096046;28;20453;-55
2022/09/18 07:58:46;;;;;;;3.67;2.50;;;11.40;99.90;;;;;;5095571;28;20522;-55
2022/09/18 08:01:13;;;;;;;5.60;3.90;;;11.50;99.90;;;;;;5095357;28;20499;-55
2022/09/18 08:03:40;;;;;;;3.20;2.40;;;11.50;99.90;;;;;;5095575;28;20447;-55
2022/09/18 08:06:09;;;;;;;3.57;2.03;;;11.50;99.90;;;;;;5095410;28;20451;-55
2022/09/18 08:08:36;;;;;;;2.40;2.30;;;11.40;99.90;;;;;;5095727;28;20505;-55
2022/09/18 08:11:03;;;;;;;7.03;2.73;;;11.40;99.90;;;;;;5095357;28;20973;-55
2022/09/18 08:13:31;;;;;;;3.13;2.93;;;11.50;99.90;;;;;;5095237;28;20547;-55
2022/09/18 08:15:58;;;;;;;4.63;2.33;;;11.50;99.90;;;;;;5095700;28;20448;-55
2022/09/18 08:18:25;;;;;;;3.40;2.10;;;11.60;99.90;;;;;;5095187;28;21011;-55
2022/09/18 08:20:56;;;;;;;3.50;2.53;;;11.60;99.90;;;;;;5095017;28;20534;-55
2022/09/18 08:23:24;;;;;;;2.57;2.00;;;11.60;99.90;;;;;;5095073;28;20431;-55
2022/09/18 08:25:52;;;;;;;3.67;2.57;;;11.60;99.90;;;;;;5095315;28;20885;-55
2022/09/18 08:28:19;;;;;;;3.23;2.60;;;11.60;99.90;;;;;;5094456;28;20444;-56
2022/09/18 08:30:46;;;;;;;7.07;2.97;;;11.70;99.90;;;;;;5095103;28;20454;-56
2022/09/18 08:33:14;;;;;;;3.30;2.40;;;11.80;99.90;;;;;;5094916;28;20447;-56
2022/09/18 08:35:41;;;;;;;2.23;2.07;;;11.80;99.90;;;;;;5095260;28;20475;-56
2022/09/18 08:38:10;;;;;;;4.13;2.30;;;12.00;99.90;;;;;;5095062;28;20844;-56
2022/09/18 08:41:05;;;;;;;2.67;2.40;;;12.00;99.90;;;;;;5095036;28;20443;-56
2022/09/18 08:44:00;;;;;;;6.20;1.90;;;11.80;99.90;;;;;;5094901;28;20455;-56
2022/09/18 08:46:34;;;;;;;3.30;3.10;;;11.80;99.90;;;;;;5094582;28;20479;-56
2022/09/18 08:49:10;;;;;;;2.70;2.13;;;11.80;99.90;;;;;;5095031;28;20424;-56
2022/09/18 08:51:53;;;;;;;3.10;2.90;;;12.10;99.90;;;;;;5094597;28;20821;-56
2022/09/18 08:54:26;;;;;;;3.43;2.27;;;12.20;99.90;;;;;;5095001;28;20529;-56
2022/09/18 08:56:57;;;;;;;3.53;2.53;;;12.30;99.90;;;;;;5094944;28;20485;-56
2022/09/18 08:59:33;;;;;;;2.67;2.43;;;12.30;99.90;;;;;;5094754;28;20474;-56
2022/09/18 09:02:13;;;;;;;3.90;2.70;;;12.30;99.90;;;;;;5094760;28;20546;-56
2022/09/18 09:04:41;;;;;;;2.80;2.40;;;12.40;99.90;;;;;;5094663;28;20437;-56
2022/09/18 09:07:20;;;;;;;4.30;3.10;;;12.30;99.90;;;;;;5094503;28;20792;-56
2022/09/18 09:10:03;;;;;;;3.13;2.80;;;12.20;99.90;;;;;;5094638;28;20426;-56
2022/09/18 09:12:39;;;;;;;4.20;2.90;;;12.10;99.90;;;;;;5094404;28;20524;-56
2022/09/18 09:15:27;;;;;;;3.20;2.90;;;12.00;99.90;;;;;;5094340;28;20519;-56
2022/09/18 09:18:05;;;;;;;5.23;2.97;;;11.80;99.90;;;;;;5094152;28;20921;-56
2022/09/18 09:20:45;;;;;;;3.07;2.63;;;11.70;99.90;;;;;;5094373;28;20467;-56
2022/09/18 09:23:20;;;;;;;3.33;2.90;;;11.80;99.90;;;;;;5093961;28;20435;-56
2022/09/18 09:25:58;;;;;;;4.50;3.13;;;12.00;99.90;;;;;;5093941;28;20427;-56
2022/09/18 09:28:31;;;;;;;5.10;2.60;;;12.10;99.90;;;;;;5093734;28;20511;-56
2022/09/18 09:31:03;;;;;;;3.40;2.57;;;12.00;99.90;;;;;;5094244;28;20428;-56
2022/09/18 09:33:35;;;;;;;2.70;2.47;;;12.10;99.90;;;;;;5094160;28;20404;-56
2022/09/18 09:36:07;;;;;;;3.63;2.70;;;12.10;99.90;;;;;;5094231;28;20435;-56
2022/09/18 09:38:48;;;;;;;5.40;2.47;;;12.20;99.90;;;;;;5094030;28;20485;-56
2022/09/18 09:41:26;;;;;;;3.40;2.80;;;12.20;99.90;;;;;;5093077;28;20550;-56
2022/09/18 09:44:11;;;;;;;3.40;2.70;;;12.20;99.90;;;;;;5094201;28;20459;-56
2022/09/18 09:46:55;;;;;;;3.93;2.60;;;12.30;99.90;;;;;;5093614;28;20518;-56
2022/09/18 09:49:25;;;;;;;3.10;2.60;;;12.40;99.90;;;;;;5093564;28;20431;-56
2022/09/18 09:52:00;;;;;;;6.97;2.60;;;12.60;99.90;;;;;;5093645;28;20808;-55
2022/09/18 09:54:27;;;;;;;4.80;2.10;;;12.60;99.90;;;;;;5094031;28;20423;-56
2022/09/18 09:57:07;;;;;;;3.10;2.67;;;12.60;99.90;;;;;;5093861;28;20439;-56
2022/09/18 09:59:45;;;;;;;2.97;2.30;;;12.80;99.90;;;;;;5093840;28;20512;-56
2022/09/18 10:02:32;;;;;;;3.00;2.10;;;12.80;99.90;;;;;;5093593;28;20823;-56
2022/09/18 10:05:04;;;;;;;9.57;2.50;;;12.90;99.90;;;;;;5093535;28;20898;-56
2022/09/18 10:07:36;;;;;;;4.27;2.40;;;;;;;;;;5093820;28;20432;-56
2022/09/18 10:10:13;;;;;;;3.40;2.60;;;13.40;99.90;;;;;;5093838;28;20456;-56
2022/09/18 10:12:50;;;;;;;4.27;2.63;;;13.70;99.90;;;;;;5093401;28;20818;-55
2022/09/18 10:15:22;;;;;;;3.70;2.10;;;13.70;99.90;;;;;;5093543;28;20477;-56
2022/09/18 10:17:52;;;;;;;3.70;2.30;;;13.80;99.90;;;;;;5093214;28;20443;-56
2022/09/18 10:20:25;;;;;;;5.53;2.30;;;13.70;99.90;;;;;;5093487;28;20499;-56
2022/09/18 10:22:52;;;;;;;6.23;2.63;;;13.60;99.90;;;;;;5093819;28;20464;-55
2022/09/18 10:25:28;;;;;;;2.70;2.50;;;13.60;99.90;;;;;;5093433;28;20479;-55
2022/09/18 10:27:55;;;;;;;4.00;2.30;;;13.70;99.90;;;;;;5093601;28;20432;-55
2022/09/18 10:30:23;;;;;;;2.47;1.90;;;13.70;99.90;;;;;;5093231;28;20451;-55
2022/09/18 10:32:51;;;;;;;2.80;1.80;;;13.90;99.90;;;;;;5093308;28;20467;-55
2022/09/18 10:35:51;;;;;;;3.07;2.07;;;14.10;99.90;;;;;;5093000;28;20946;-55
2022/09/18 10:38:29;;;;;;;2.90;1.77;;;14.20;99.90;;;;;;5093321;28;20450;-56
2022/09/18 10:40:56;;;;;;;3.47;1.90;;;14.50;99.90;;;;;;5093106;28;20467;-55
2022/09/18 10:43:23;;;;;;;4.10;2.43;;;14.80;99.90;;;;;;5092937;28;20462;-55
2022/09/18 10:45:56;;;;;;;5.47;2.27;;;14.90;99.90;;;;;;5092912;28;20467;-56
2022/09/18 10:48:24;;;;;;;5.37;2.07;;;14.70;99.90;;;;;;5092942;28;20515;-55
2022/09/18 10:50:53;;;;;;;6.53;2.10;;;14.70;99.90;;;;;;5093095;28;20479;-55
2022/09/18 10:53:28;;;;;;;2.37;1.97;;;14.90;99.90;;;;;;5096964;28;20448;-55
2022/09/18 10:55:56;;;;;;;4.43;1.70;;;15.50;99.90;;;;;;5096971;28;20424;-55
2022/09/18 10:58:28;;;;;;;3.50;1.97;;;16.00;99.90;;;;;;5097129;28;20960;-55
2022/09/18 11:01:01;;;;;;;2.13;1.57;;;15.90;99.90;;;;;;5096860;28;20463;-55
2022/09/18 11:03:45;;;;;;;3.23;1.60;;;15.90;99.90;;;;;;5096919;28;20510;-56
2022/09/18 11:06:18;;;;;;;4.53;1.90;;;16.40;99.90;;;;;;5096986;28;20427;-56
2022/09/18 11:08:48;;;;;;;3.87;1.60;;;16.80;99.90;;;;;;5096657;28;20903;-56
2022/09/18 11:11:24;;;;;;;3.27;1.50;;;16.90;99.90;;;;;;5096615;28;20497;-56
2022/09/18 11:13:56;;;;;;;6.70;1.80;;;16.70;99.90;;;;;;5096713;28;20487;-56
2022/09/18 11:16:27;;;;;;;2.40;1.20;;;17.00;99.90;;;;;;5096606;28;20599;-55
2022/09/18 11:19:07;;;;;;;2.37;1.60;;;16.90;99.90;;;;;;5096071;28;20522;-55
2022/09/18 11:21:45;;;;;;;4.33;1.80;;;16.70;99.90;;;;;;5096510;28;20470;-50
2022/09/18 11:24:27;;;;;;;2.17;1.67;;;16.70;99.90;;;;;;5095945;28;20436;-57
2022/09/18 11:26:58;;;;;;;2.33;1.30;;;16.90;99.90;;;;;;5096112;28;20427;-56
2022/09/18 11:29:29;;;;;;;1.87;1.37;;;17.00;99.90;;;;;;5099007;28;20519;-58
2022/09/18 11:32:03;;;;;;;3.20;1.67;;;16.90;99.90;;;;;;5096260;28;20550;-60
2022/09/18 11:34:38;;;;;;;2.90;1.57;;;16.50;99.90;;;;;;5096286;28;20431;-57
2022/09/18 11:37:08;;;;;;;2.27;1.90;;;16.50;99.90;;;;;;5096556;28;20423;-58
2022/09/18 11:39:40;;;;;;;2.10;1.53;;;16.60;99.90;;;;;;5095863;28;20826;-54
2022/09/18 11:42:10;;;;;;;2.97;1.70;;;16.30;99.90;;;;;;5095891;28;20486;-56
2022/09/18 11:44:38;;;;;;;2.23;1.40;;;16.10;99.90;;;;;;5095922;28;20961;-52
2022/09/18 11:47:26;;;;;;;3.03;1.50;;;16.10;99.90;;;;;;5095728;28;20432;-56
2022/09/18 11:50:04;;;;;;;2.30;1.77;;;16.00;99.90;;;;;;5096183;28;20560;-58
2022/09/18 11:52:36;;;;;;;2.60;1.77;;;15.80;99.90;;;;;;5095669;28;21052;-58
2022/09/18 11:55:10;;;;;;;2.17;1.60;;;15.80;99.90;;;;;;5095764;28;20428;-60
2022/09/18 11:57:42;;;;;;;2.27;1.47;;;15.70;99.90;;;;;;5100590;28;20949;-58
2022/09/18 12:00:15;;;;;;;2.53;1.40;;;15.60;99.90;;;;;;5104660;28;20471;-57
2022/09/18 12:02:48;;;;;;;1.80;1.60;;;15.80;99.90;;;;;;5106177;28;20451;-60
2022/09/18 12:05:22;;;;;;;1.63;1.43;;;15.90;99.90;;;;;;5104153;28;20445;-58
2022/09/18 12:08:02;;;;;;;2.43;1.80;;;16.00;99.60;;;;;;5114148;27;20659;-58
2022/09/18 12:10:45;;;;;;;1.53;1.40;;;15.90;99.90;;;;;;5114654;28;20522;-57
2022/09/18 12:13:39;;;;;;;1.67;1.50;;;15.90;99.60;;;;;;5115050;28;20900;-55
2022/09/18 12:16:13;;;;;;;1.60;1.50;;;16.10;99.50;;;;;;5115331;27;20757;-56
2022/09/18 12:18:50;;;;;;;3.13;1.60;;;16.30;99.90;;;;;;5114918;28;20559;-60
2022/09/18 12:21:20;;;;;;;5.33;1.53;;;16.40;99.20;;;;;;5115395;28;20506;-57
2022/09/18 12:23:47;;;;;;;2.70;1.60;;;16.30;99.40;;;;;;5115009;28;20433;-57
2022/09/18 12:26:21;;;;;;;2.13;1.57;;;16.30;99.40;;;;;;5115164;28;20481;-59
2022/09/18 12:29:05;;;;;;;2.13;1.60;;;16.20;99.30;;;;;;5112579;28;20909;-56
2022/09/18 12:31:41;;;;;;;2.77;1.30;;;16.00;99.90;;;;;;5109748;28;20450;-58
2022/09/18 12:34:19;;;;;;;4.10;1.97;;;16.00;99.20;;;;;;5094789;28;20414;-60
2022/09/18 12:37:16;;;;;;;3.97;1.50;;;16.20;98.80;;;;;;5095161;28;20424;-60
2022/09/18 12:40:11;;;;;;;1.90;1.47;;;16.60;98.40;;;;;;5094244;28;20978;-63
2022/09/18 12:42:46;;;;;;;1.77;1.37;;;17.00;98.10;;;;;;5094106;28;20981;-59
2022/09/18 12:45:50;;;;;;;2.53;1.50;;;16.90;96.50;;;;;;5094015;28;20502;-57
2022/09/18 12:48:37;;;;;;;1.70;1.30;;;17.20;97.60;;;;;;5094037;28;20431;-56
2022/09/18 12:51:25;;;;;;;4.50;1.80;;;17.60;96.70;;;;;;5094008;28;21048;-58
2022/09/18 12:54:01;;;;;;;2.03;1.40;;;17.70;96.80;;;;;;5094614;28;20410;-58
2022/09/18 12:56:41;;;;;;;3.60;2.30;;;17.70;95.40;;;;;;5094203;28;20438;-61
2022/09/18 12:59:33;;;;;;;3.37;1.53;;;17.80;95.00;;;;;;5098114;28;20862;-56
2022/09/18 13:02:13;;;;;;;3.40;1.80;;;17.40;95.40;;;;;;5114205;28;20969;-60
2022/09/18 13:04:46;;;;;;;2.70;1.60;;;17.30;95.40;;;;;;5114698;28;20450;-57
2022/09/18 13:07:20;;;;;;;7.00;1.77;;;17.00;96.40;;;;;;5114609;28;20431;-55
2022/09/18 13:09:54;;;;;;;2.13;1.60;;;16.70;95.40;;;;;;5114508;28;20423;-60